sensor_id;sensor_type;location;lat;lon;timestamp;temperature;humidity
48212;DHT22;34000;48.772;9.162;2022-11-27T00:01:32;7.90;92.20
48212;DHT22;34000;48.772;9.162;2022-11-27T00:03:58;7.80;92.70
48212;DHT22;34000;48.772;9.162;2022-11-27T00:06:24;7.80;92.60
48212;DHT22;34000;48.772;9.162;2022-11-27T00:08:50;7.90;92.60
48212;DHT22;34000;48.772;9.162;2022-11-27T00:11:17;7.80;92.60
48212;DHT22;34000;48.772;9.162;2022-11-27T00:13:44;8.10;92.60
48212;DHT22;34000;48.772;9.162;2022-11-27T00:16:10;7.90;92.50
48212;DHT22;34000;48.772;9.162;2022-11-27T00:18:36;7.80;93.10
48212;DHT22;34000;48.772;9.162;2022-11-27T00:21:12;7.80;93.00
48212;DHT22;34000;48.772;9.162;2022-11-27T00:23:38;8.00;93.00
48212;DHT22;34000;48.772;9.162;2022-11-27T00:26:04;7.90;93.10
48212;DHT22;34000;48.772;9.162;2022-11-27T00:28:30;7.90;93.10
48212;DHT22;34000;48.772;9.162;2022-11-27T00:33:21;7.70;94.00
48212;DHT22;34000;48.772;9.162;2022-11-27T00:50:23;8.00;62.30
48212;DHT22;34000;48.772;9.162;2022-11-27T00:52:48;7.80;65.00
48212;DHT22;34000;48.772;9.162;2022-11-27T00:55:14;7.80;66.50
48212;DHT22;34000;48.772;9.162;2022-11-27T00:57:39;8.00;67.10
48212;DHT22;34000;48.772;9.162;2022-11-27T01:00:05;8.00;67.40
48212;DHT22;34000;48.772;9.162;2022-11-27T01:02:31;7.90;67.10
48212;DHT22;34000;48.772;9.162;2022-11-27T01:04:56;7.90;67.10
48212;DHT22;34000;48.772;9.162;2022-11-27T01:07:22;7.80;67.50
48212;DHT22;34000;48.772;9.162;2022-11-27T01:09:47;7.90;67.50
48212;DHT22;34000;48.772;9.162;2022-11-27T01:12:13;8.00;67.40
48212;DHT22;34000;48.772;9.162;2022-11-27T01:14:38;7.90;69.90
48212;DHT22;34000;48.772;9.162;2022-11-27T01:17:04;8.00;69.90
48212;DHT22;34000;48.772;9.162;2022-11-27T01:19:29;7.90;69.70
48212;DHT22;34000;48.772;9.162;2022-11-27T01:21:55;7.90;69.50
48212;DHT22;34000;48.772;9.162;2022-11-27T01:24:20;7.90;62.70
48212;DHT22;34000;48.772;9.162;2022-11-27T01:26:46;7.90;62.60
48212;DHT22;34000;48.772;9.162;2022-11-27T01:29:11;7.90;62.50
48212;DHT22;34000;48.772;9.162;2022-11-27T01:31:37;7.90;62.50
48212;DHT22;34000;48.772;9.162;2022-11-27T01:34:04;8.00;62.40
48212;DHT22;34000;48.772;9.162;2022-11-27T01:36:30;8.00;62.40
48212;DHT22;34000;48.772;9.162;2022-11-27T01:38:56;8.10;62.40
48212;DHT22;34000;48.772;9.162;2022-11-27T01:41:23;8.10;62.30
48212;DHT22;34000;48.772;9.162;2022-11-27T01:43:54;8.00;62.20
48212;DHT22;34000;48.772;9.162;2022-11-27T01:48:49;8.00;62.30
48212;DHT22;34000;48.772;9.162;2022-11-27T01:53:41;7.90;62.00
48212;DHT22;34000;48.772;9.162;2022-11-27T01:56:06;7.70;62.60
48212;DHT22;34000;48.772;9.162;2022-11-27T01:58:32;7.70;62.60
48212;DHT22;34000;48.772;9.162;2022-11-27T02:00:59;7.60;62.60
48212;DHT22;34000;48.772;9.162;2022-11-27T02:05:50;7.60;62.40
48212;DHT22;34000;48.772;9.162;2022-11-27T02:08:16;7.50;63.00
48212;DHT22;34000;48.772;9.162;2022-11-27T02:13:17;7.40;63.20
48212;DHT22;34000;48.772;9.162;2022-11-27T02:18:42;7.30;63.40
48212;DHT22;34000;48.772;9.162;2022-11-27T02:23:46;7.10;63.50
48212;DHT22;34000;48.772;9.162;2022-11-27T02:26:37;7.10;63.60
48212;DHT22;34000;48.772;9.162;2022-11-27T02:36:34;7.10;63.70
48212;DHT22;34000;48.772;9.162;2022-11-27T02:39:03;7.10;63.70
48212;DHT22;34000;48.772;9.162;2022-11-27T02:41:32;7.00;63.70
48212;DHT22;34000;48.772;9.162;2022-11-27T02:44:01;7.00;63.80
48212;DHT22;34000;48.772;9.162;2022-11-27T02:48:57;6.90;63.40
48212;DHT22;34000;48.772;9.162;2022-11-27T02:51:25;6.90;64.00
48212;DHT22;34000;48.772;9.162;2022-11-27T02:53:53;6.90;64.10
48212;DHT22;34000;48.772;9.162;2022-11-27T02:56:19;6.80;64.10
48212;DHT22;34000;48.772;9.162;2022-11-27T02:58:46;6.90;64.20
48212;DHT22;34000;48.772;9.162;2022-11-27T03:01:12;6.80;64.20
48212;DHT22;34000;48.772;9.162;2022-11-27T03:03:42;6.80;64.20
48212;DHT22;34000;48.772;9.162;2022-11-27T03:06:09;6.80;64.20
48212;DHT22;34000;48.772;9.162;2022-11-27T03:08:48;6.80;64.20
48212;DHT22;34000;48.772;9.162;2022-11-27T03:11:15;6.90;64.20
48212;DHT22;34000;48.772;9.162;2022-11-27T03:13:43;6.90;64.10
48212;DHT22;34000;48.772;9.162;2022-11-27T03:16:11;6.90;64.10
48212;DHT22;34000;48.772;9.162;2022-11-27T03:18:55;6.80;63.90
48212;DHT22;34000;48.772;9.162;2022-11-27T03:23:47;6.90;63.80
48212;DHT22;34000;48.772;9.162;2022-11-27T03:26:12;6.90;63.80
48212;DHT22;34000;48.772;9.162;2022-11-27T03:28:38;6.90;63.70
48212;DHT22;34000;48.772;9.162;2022-11-27T03:31:04;6.90;63.70
48212;DHT22;34000;48.772;9.162;2022-11-27T03:33:29;6.90;63.80
48212;DHT22;34000;48.772;9.162;2022-11-27T03:35:55;6.90;63.80
48212;DHT22;34000;48.772;9.162;2022-11-27T03:38:20;6.90;63.70
48212;DHT22;34000;48.772;9.162;2022-11-27T03:41:04;6.90;63.80
48212;DHT22;34000;48.772;9.162;2022-11-27T03:43:32;6.90;63.80
48212;DHT22;34000;48.772;9.162;2022-11-27T03:46:03;6.90;63.90
48212;DHT22;34000;48.772;9.162;2022-11-27T03:51:01;6.80;64.10
48212;DHT22;34000;48.772;9.162;2022-11-27T04:01:15;6.70;64.10
48212;DHT22;34000;48.772;9.162;2022-11-27T04:03:41;6.80;64.20
48212;DHT22;34000;48.772;9.162;2022-11-27T04:06:07;6.70;64.00
48212;DHT22;34000;48.772;9.162;2022-11-27T04:08:32;6.70;64.00
48212;DHT22;34000;48.772;9.162;2022-11-27T04:10:58;6.60;64.00
48212;DHT22;34000;48.772;9.162;2022-11-27T04:13:23;6.60;64.10
48212;DHT22;34000;48.772;9.162;2022-11-27T04:15:49;6.60;64.10
48212;DHT22;34000;48.772;9.162;2022-11-27T04:18:14;6.60;64.20
48212;DHT22;34000;48.772;9.162;2022-11-27T04:20:40;6.60;64.20
48212;DHT22;34000;48.772;9.162;2022-11-27T04:23:05;6.90;68.60
48212;DHT22;34000;48.772;9.162;2022-11-27T04:25:31;6.60;64.00
48212;DHT22;34000;48.772;9.162;2022-11-27T04:27:57;6.70;64.00
48212;DHT22;34000;48.772;9.162;2022-11-27T04:30:22;6.60;63.80
48212;DHT22;34000;48.772;9.162;2022-11-27T04:32:48;6.60;63.80
48212;DHT22;34000;48.772;9.162;2022-11-27T04:35:13;6.70;63.80
48212;DHT22;34000;48.772;9.162;2022-11-27T04:37:39;6.60;63.80
48212;DHT22;34000;48.772;9.162;2022-11-27T04:40:04;6.60;63.80
48212;DHT22;34000;48.772;9.162;2022-11-27T04:42:30;6.70;63.80
48212;DHT22;34000;48.772;9.162;2022-11-27T04:44:55;6.60;63.80
48212;DHT22;34000;48.772;9.162;2022-11-27T04:47:21;6.50;63.80
48212;DHT22;34000;48.772;9.162;2022-11-27T04:49:46;6.50;63.80
48212;DHT22;34000;48.772;9.162;2022-11-27T04:52:12;6.50;63.90
48212;DHT22;34000;48.772;9.162;2022-11-27T04:54:37;6.50;64.00
48212;DHT22;34000;48.772;9.162;2022-11-27T04:57:03;6.50;64.00
48212;DHT22;34000;48.772;9.162;2022-11-27T04:59:28;6.50;64.10
48212;DHT22;34000;48.772;9.162;2022-11-27T05:01:54;6.50;64.10
48212;DHT22;34000;48.772;9.162;2022-11-27T05:04:19;6.50;64.00
48212;DHT22;34000;48.772;9.162;2022-11-27T05:06:45;6.60;64.00
48212;DHT22;34000;48.772;9.162;2022-11-27T05:09:10;6.60;63.90
48212;DHT22;34000;48.772;9.162;2022-11-27T05:11:36;6.60;63.80
48212;DHT22;34000;48.772;9.162;2022-11-27T05:14:01;6.60;63.80
48212;DHT22;34000;48.772;9.162;2022-11-27T05:16:50;6.60;63.90
48212;DHT22;34000;48.772;9.162;2022-11-27T05:19:17;6.60;63.90
48212;DHT22;34000;48.772;9.162;2022-11-27T05:21:43;6.60;63.90
48212;DHT22;34000;48.772;9.162;2022-11-27T05:24:09;6.60;63.90
48212;DHT22;34000;48.772;9.162;2022-11-27T05:26:34;6.60;63.90
48212;DHT22;34000;48.772;9.162;2022-11-27T05:29:00;6.60;64.00
48212;DHT22;34000;48.772;9.162;2022-11-27T05:31:26;6.60;64.00
48212;DHT22;34000;48.772;9.162;2022-11-27T05:33:51;6.60;64.00
48212;DHT22;34000;48.772;9.162;2022-11-27T05:36:17;6.60;63.90
48212;DHT22;34000;48.772;9.162;2022-11-27T05:38:43;6.60;63.90
48212;DHT22;34000;48.772;9.162;2022-11-27T05:41:08;6.60;63.90
48212;DHT22;34000;48.772;9.162;2022-11-27T05:43:34;6.60;63.90
48212;DHT22;34000;48.772;9.162;2022-11-27T05:46:03;6.60;63.90
48212;DHT22;34000;48.772;9.162;2022-11-27T05:48:28;6.60;63.80
48212;DHT22;34000;48.772;9.162;2022-11-27T05:50:54;6.60;63.70
48212;DHT22;34000;48.772;9.162;2022-11-27T05:53:19;6.60;63.70
48212;DHT22;34000;48.772;9.162;2022-11-27T05:55:45;6.60;63.70
48212;DHT22;34000;48.772;9.162;2022-11-27T05:58:10;6.60;63.70
48212;DHT22;34000;48.772;9.162;2022-11-27T06:00:36;6.60;63.60
48212;DHT22;34000;48.772;9.162;2022-11-27T06:03:01;6.60;63.60
48212;DHT22;34000;48.772;9.162;2022-11-27T06:05:26;6.60;63.50
48212;DHT22;34000;48.772;9.162;2022-11-27T06:07:52;6.50;63.40
48212;DHT22;34000;48.772;9.162;2022-11-27T06:10:17;6.60;63.50
48212;DHT22;34000;48.772;9.162;2022-11-27T06:12:45;6.60;63.50
48212;DHT22;34000;48.772;9.162;2022-11-27T06:15:10;6.50;63.50
48212;DHT22;34000;48.772;9.162;2022-11-27T06:17:36;6.50;63.50
48212;DHT22;34000;48.772;9.162;2022-11-27T06:20:01;6.80;91.60
48212;DHT22;34000;48.772;9.162;2022-11-27T06:22:27;6.50;93.20
48212;DHT22;34000;48.772;9.162;2022-11-27T06:24:52;6.60;94.50
48212;DHT22;34000;48.772;9.162;2022-11-27T06:27:18;6.40;94.50
48212;DHT22;34000;48.772;9.162;2022-11-27T06:29:43;6.40;63.60
48212;DHT22;34000;48.772;9.162;2022-11-27T06:32:09;6.30;63.60
48212;DHT22;34000;48.772;9.162;2022-11-27T06:34:34;6.30;63.60
48212;DHT22;34000;48.772;9.162;2022-11-27T06:37:00;6.20;63.50
48212;DHT22;34000;48.772;9.162;2022-11-27T06:39:25;6.20;63.50
48212;DHT22;34000;48.772;9.162;2022-11-27T06:41:51;6.20;63.50
48212;DHT22;34000;48.772;9.162;2022-11-27T06:44:16;6.20;63.60
48212;DHT22;34000;48.772;9.162;2022-11-27T06:46:42;6.20;63.60
48212;DHT22;34000;48.772;9.162;2022-11-27T06:49:07;6.20;63.70
48212;DHT22;34000;48.772;9.162;2022-11-27T06:51:33;6.30;63.60
48212;DHT22;34000;48.772;9.162;2022-11-27T06:53:59;6.30;64.20
48212;DHT22;34000;48.772;9.162;2022-11-27T06:56:26;6.20;63.50
48212;DHT22;34000;48.772;9.162;2022-11-27T06:58:56;6.40;63.60
48212;DHT22;34000;48.772;9.162;2022-11-27T07:01:22;6.40;63.50
48212;DHT22;34000;48.772;9.162;2022-11-27T07:03:47;6.40;63.40
48212;DHT22;34000;48.772;9.162;2022-11-27T07:06:13;6.40;63.40
48212;DHT22;34000;48.772;9.162;2022-11-27T07:08:39;6.40;63.30
48212;DHT22;34000;48.772;9.162;2022-11-27T07:11:12;6.40;63.30
48212;DHT22;34000;48.772;9.162;2022-11-27T07:13:38;6.40;63.30
48212;DHT22;34000;48.772;9.162;2022-11-27T07:16:05;6.40;63.20
48212;DHT22;34000;48.772;9.162;2022-11-27T07:18:33;6.60;63.90
48212;DHT22;34000;48.772;9.162;2022-11-27T07:20:59;6.60;63.20
48212;DHT22;34000;48.772;9.162;2022-11-27T07:23:24;6.70;63.10
48212;DHT22;34000;48.772;9.162;2022-11-27T07:25:50;6.80;63.10
48212;DHT22;34000;48.772;9.162;2022-11-27T07:28:15;6.90;63.10
48212;DHT22;34000;48.772;9.162;2022-11-27T07:30:40;7.00;63.00
48212;DHT22;34000;48.772;9.162;2022-11-27T07:33:06;7.10;62.90
48212;DHT22;34000;48.772;9.162;2022-11-27T07:35:31;7.10;62.80
48212;DHT22;34000;48.772;9.162;2022-11-27T07:37:57;7.20;62.80
48212;DHT22;34000;48.772;9.162;2022-11-27T07:40:22;7.30;62.70
48212;DHT22;34000;48.772;9.162;2022-11-27T07:42:48;7.40;62.70
48212;DHT22;34000;48.772;9.162;2022-11-27T07:45:13;7.50;62.50
48212;DHT22;34000;48.772;9.162;2022-11-27T07:47:39;7.50;62.40
48212;DHT22;34000;48.772;9.162;2022-11-27T07:50:05;7.60;62.30
48212;DHT22;34000;48.772;9.162;2022-11-27T07:52:35;7.70;62.20
48212;DHT22;34000;48.772;9.162;2022-11-27T07:55:01;7.80;62.10
48212;DHT22;34000;48.772;9.162;2022-11-27T07:57:27;7.80;62.00
48212;DHT22;34000;48.772;9.162;2022-11-27T07:59:52;7.90;61.90
48212;DHT22;34000;48.772;9.162;2022-11-27T08:02:18;7.90;61.70
48212;DHT22;34000;48.772;9.162;2022-11-27T08:04:43;7.90;61.70
48212;DHT22;34000;48.772;9.162;2022-11-27T08:07:09;8.00;61.80
48212;DHT22;34000;48.772;9.162;2022-11-27T08:09:34;8.00;61.70
48212;DHT22;34000;48.772;9.162;2022-11-27T08:12:00;8.00;61.60
48212;DHT22;34000;48.772;9.162;2022-11-27T08:14:26;8.00;61.60
48212;DHT22;34000;48.772;9.162;2022-11-27T08:16:51;8.00;61.50
48212;DHT22;34000;48.772;9.162;2022-11-27T08:19:16;8.00;61.50
48212;DHT22;34000;48.772;9.162;2022-11-27T08:21:42;7.90;61.60
48212;DHT22;34000;48.772;9.162;2022-11-27T08:24:07;8.00;61.70
48212;DHT22;34000;48.772;9.162;2022-11-27T08:26:33;7.90;61.60
48212;DHT22;34000;48.772;9.162;2022-11-27T08:28:59;7.70;61.70
48212;DHT22;34000;48.772;9.162;2022-11-27T08:31:24;7.80;61.80
48212;DHT22;34000;48.772;9.162;2022-11-27T08:33:50;7.70;61.90
48212;DHT22;34000;48.772;9.162;2022-11-27T08:36:15;7.70;62.50
48212;DHT22;34000;48.772;9.162;2022-11-27T08:38:41;7.70;61.90
48212;DHT22;34000;48.772;9.162;2022-11-27T08:41:07;7.70;61.90
48212;DHT22;34000;48.772;9.162;2022-11-27T08:43:32;7.70;61.80
48212;DHT22;34000;48.772;9.162;2022-11-27T08:45:58;7.80;61.80
48212;DHT22;34000;48.772;9.162;2022-11-27T08:48:24;7.90;61.80
48212;DHT22;34000;48.772;9.162;2022-11-27T08:50:50;8.00;61.80
48212;DHT22;34000;48.772;9.162;2022-11-27T08:53:16;8.10;61.80
48212;DHT22;34000;48.772;9.162;2022-11-27T08:55:42;8.30;61.50
48212;DHT22;34000;48.772;9.162;2022-11-27T08:58:07;8.50;61.50
48212;DHT22;34000;48.772;9.162;2022-11-27T09:00:33;8.60;61.30
48212;DHT22;34000;48.772;9.162;2022-11-27T09:02:59;9.00;61.00
48212;DHT22;34000;48.772;9.162;2022-11-27T09:05:26;9.20;60.70
48212;DHT22;34000;48.772;9.162;2022-11-27T09:07:52;9.40;60.40
48212;DHT22;34000;48.772;9.162;2022-11-27T09:10:17;9.80;60.10
48212;DHT22;34000;48.772;9.162;2022-11-27T09:12:43;10.40;59.60
48212;DHT22;34000;48.772;9.162;2022-11-27T09:15:09;11.00;58.40
48212;DHT22;34000;48.772;9.162;2022-11-27T09:17:35;11.50;58.00
48212;DHT22;34000;48.772;9.162;2022-11-27T09:20:00;12.30;56.90
48212;DHT22;34000;48.772;9.162;2022-11-27T09:22:26;13.00;55.50
48212;DHT22;34000;48.772;9.162;2022-11-27T09:24:51;13.60;54.30
48212;DHT22;34000;48.772;9.162;2022-11-27T09:27:17;13.50;53.10
48212;DHT22;34000;48.772;9.162;2022-11-27T09:29:42;13.20;53.10
48212;DHT22;34000;48.772;9.162;2022-11-27T09:32:08;13.00;53.60
48212;DHT22;34000;48.772;9.162;2022-11-27T09:34:33;12.70;54.20
48212;DHT22;34000;48.772;9.162;2022-11-27T09:36:59;12.50;54.70
48212;DHT22;34000;48.772;9.162;2022-11-27T09:39:24;12.40;54.80
48212;DHT22;34000;48.772;9.162;2022-11-27T09:41:55;12.30;55.10
48212;DHT22;34000;48.772;9.162;2022-11-27T09:47:00;12.70;55.70
48212;DHT22;34000;48.772;9.162;2022-11-27T09:49:34;13.20;55.20
48212;DHT22;34000;48.772;9.162;2022-11-27T09:52:10;13.70;54.60
48212;DHT22;34000;48.772;9.162;2022-11-27T09:54:43;13.90;54.00
48212;DHT22;34000;48.772;9.162;2022-11-27T09:57:15;14.00;53.70
48212;DHT22;34000;48.772;9.162;2022-11-27T09:59:43;14.30;54.00
48212;DHT22;34000;48.772;9.162;2022-11-27T10:02:18;15.60;52.10
48212;DHT22;34000;48.772;9.162;2022-11-27T10:04:45;15.60;52.60
48212;DHT22;34000;48.772;9.162;2022-11-27T10:15:06;16.80;50.30
48212;DHT22;34000;48.772;9.162;2022-11-27T10:17:38;16.90;50.20
48212;DHT22;34000;48.772;9.162;2022-11-27T10:25:16;16.60;50.50
48212;DHT22;34000;48.772;9.162;2022-11-27T10:27:50;16.40;50.60
48212;DHT22;34000;48.772;9.162;2022-11-27T10:30:20;16.20;51.10
48212;DHT22;34000;48.772;9.162;2022-11-27T10:32:50;16.20;51.30
48212;DHT22;34000;48.772;9.162;2022-11-27T10:35:18;16.40;51.30
48212;DHT22;34000;48.772;9.162;2022-11-27T10:38:02;16.70;50.90
48212;DHT22;34000;48.772;9.162;2022-11-27T10:40:33;16.80;50.20
48212;DHT22;34000;48.772;9.162;2022-11-27T10:43:21;16.70;50.40
48212;DHT22;34000;48.772;9.162;2022-11-27T10:45:53;16.90;50.50
48212;DHT22;34000;48.772;9.162;2022-11-27T10:48:20;18.20;49.40
48212;DHT22;34000;48.772;9.162;2022-11-27T10:50:46;19.80;47.30
48212;DHT22;34000;48.772;9.162;2022-11-27T10:53:23;21.30;45.20
48212;DHT22;34000;48.772;9.162;2022-11-27T10:59:00;23.20;41.80
48212;DHT22;34000;48.772;9.162;2022-11-27T11:01:04;22.80;42.00
48212;DHT22;34000;48.772;9.162;2022-11-27T11:03:31;23.00;42.40
48212;DHT22;34000;48.772;9.162;2022-11-27T11:08:22;24.50;40.20
48212;DHT22;34000;48.772;9.162;2022-11-27T11:10:51;25.00;44.50
48212;DHT22;34000;48.772;9.162;2022-11-27T11:13:19;25.30;41.10
48212;DHT22;34000;48.772;9.162;2022-11-27T11:16:04;25.70;54.40
48212;DHT22;34000;48.772;9.162;2022-11-27T11:20:57;26.70;37.80
48212;DHT22;34000;48.772;9.162;2022-11-27T11:25:52;27.30;37.50
48212;DHT22;34000;48.772;9.162;2022-11-27T11:28:18;27.30;37.60
48212;DHT22;34000;48.772;9.162;2022-11-27T11:30:51;27.00;37.90
48212;DHT22;34000;48.772;9.162;2022-11-27T11:33:17;26.10;38.60
48212;DHT22;34000;48.772;9.162;2022-11-27T11:35:49;25.20;39.50
48212;DHT22;34000;48.772;9.162;2022-11-27T11:38:16;24.30;40.40
48212;DHT22;34000;48.772;9.162;2022-11-27T11:40:42;23.30;41.40
48212;DHT22;34000;48.772;9.162;2022-11-27T11:46:12;21.10;43.00
48212;DHT22;34000;48.772;9.162;2022-11-27T11:48:39;20.00;44.40
48212;DHT22;34000;48.772;9.162;2022-11-27T11:51:13;19.40;45.10
48212;DHT22;34000;48.772;9.162;2022-11-27T11:53:41;18.70;45.00
48212;DHT22;34000;48.772;9.162;2022-11-27T11:56:15;18.40;46.00
48212;DHT22;34000;48.772;9.162;2022-11-27T11:58:49;18.50;46.30
48212;DHT22;34000;48.772;9.162;2022-11-27T12:13:52;19.10;46.10
48212;DHT22;34000;48.772;9.162;2022-11-27T12:18:59;19.80;43.70
48212;DHT22;34000;48.772;9.162;2022-11-27T12:29:49;20.70;42.70
48212;DHT22;34000;48.772;9.162;2022-11-27T12:32:29;20.30;43.00
48212;DHT22;34000;48.772;9.162;2022-11-27T12:39:58;19.20;44.70
48212;DHT22;34000;48.772;9.162;2022-11-27T12:47:42;19.00;43.50
48212;DHT22;34000;48.772;9.162;2022-11-27T12:55:20;18.00;43.50
48212;DHT22;34000;48.772;9.162;2022-11-27T12:57:50;17.60;67.40
48212;DHT22;34000;48.772;9.162;2022-11-27T13:00:18;17.30;49.50
48212;DHT22;34000;48.772;9.162;2022-11-27T13:05:29;16.50;43.60
48212;DHT22;34000;48.772;9.162;2022-11-27T13:07:58;16.30;45.10
48212;DHT22;34000;48.772;9.162;2022-11-27T13:10:33;16.00;43.30
48212;DHT22;34000;48.772;9.162;2022-11-27T13:18:12;15.50;43.00
48212;DHT22;34000;48.772;9.162;2022-11-27T13:20:38;15.40;43.10
48212;DHT22;34000;48.772;9.162;2022-11-27T13:23:04;15.40;43.30
48212;DHT22;34000;48.772;9.162;2022-11-27T13:25:30;15.30;43.30
48212;DHT22;34000;48.772;9.162;2022-11-27T13:27:58;15.30;43.40
48212;DHT22;34000;48.772;9.162;2022-11-27T13:30:25;15.40;43.50
48212;DHT22;34000;48.772;9.162;2022-11-27T13:32:58;15.40;43.50
48212;DHT22;34000;48.772;9.162;2022-11-27T13:37:55;15.40;43.60
48212;DHT22;34000;48.772;9.162;2022-11-27T13:40:31;15.40;43.60
48212;DHT22;34000;48.772;9.162;2022-11-27T13:43:03;15.40;43.50
48212;DHT22;34000;48.772;9.162;2022-11-27T13:45:31;15.30;43.60
48212;DHT22;34000;48.772;9.162;2022-11-27T13:47:58;15.30;43.70
48212;DHT22;34000;48.772;9.162;2022-11-27T13:50:25;15.30;43.80
48212;DHT22;34000;48.772;9.162;2022-11-27T13:52:57;15.20;43.70
48212;DHT22;34000;48.772;9.162;2022-11-27T13:55:31;15.30;43.80
48212;DHT22;34000;48.772;9.162;2022-11-27T13:57:57;15.20;43.80
48212;DHT22;34000;48.772;9.162;2022-11-27T14:00:39;15.10;43.80
48212;DHT22;34000;48.772;9.162;2022-11-27T14:03:06;15.10;43.90
48212;DHT22;34000;48.772;9.162;2022-11-27T14:05:36;15.00;43.90
48212;DHT22;34000;48.772;9.162;2022-11-27T14:10:30;14.80;43.50
48212;DHT22;34000;48.772;9.162;2022-11-27T14:12:58;14.70;44.20
48212;DHT22;34000;48.772;9.162;2022-11-27T14:15:26;14.70;44.30
48212;DHT22;34000;48.772;9.162;2022-11-27T14:22:44;14.50;44.40
48212;DHT22;34000;48.772;9.162;2022-11-27T14:25:18;14.40;44.50
48212;DHT22;34000;48.772;9.162;2022-11-27T14:27:44;14.30;44.60
48212;DHT22;34000;48.772;9.162;2022-11-27T14:30:13;14.30;44.80
48212;DHT22;34000;48.772;9.162;2022-11-27T14:32:46;14.20;44.80
48212;DHT22;34000;48.772;9.162;2022-11-27T14:35:19;14.10;44.80
48212;DHT22;34000;48.772;9.162;2022-11-27T14:40:17;14.00;44.50
48212;DHT22;34000;48.772;9.162;2022-11-27T14:42:44;14.00;45.10
48212;DHT22;34000;48.772;9.162;2022-11-27T14:45:11;14.00;45.20
48212;DHT22;34000;48.772;9.162;2022-11-27T14:47:40;13.90;45.20
48212;DHT22;34000;48.772;9.162;2022-11-27T14:50:06;13.90;45.30
48212;DHT22;34000;48.772;9.162;2022-11-27T14:52:35;13.90;45.30
48212;DHT22;34000;48.772;9.162;2022-11-27T14:55:00;13.90;45.40
48212;DHT22;34000;48.772;9.162;2022-11-27T14:57:26;13.80;45.40
48212;DHT22;34000;48.772;9.162;2022-11-27T15:02:37;13.80;45.40
48212;DHT22;34000;48.772;9.162;2022-11-27T15:05:03;13.90;45.50
48212;DHT22;34000;48.772;9.162;2022-11-27T15:07:29;13.80;45.50
48212;DHT22;34000;48.772;9.162;2022-11-27T15:09:56;13.80;45.50
48212;DHT22;34000;48.772;9.162;2022-11-27T15:12:22;13.80;45.50
48212;DHT22;34000;48.772;9.162;2022-11-27T15:17:29;13.70;45.50
48212;DHT22;34000;48.772;9.162;2022-11-27T15:19:55;13.60;45.60
48212;DHT22;34000;48.772;9.162;2022-11-27T15:22:21;13.60;45.70
48212;DHT22;34000;48.772;9.162;2022-11-27T15:24:56;13.50;45.80
48212;DHT22;34000;48.772;9.162;2022-11-27T15:27:22;13.50;45.80
48212;DHT22;34000;48.772;9.162;2022-11-27T15:32:20;13.40;48.70
48212;DHT22;34000;48.772;9.162;2022-11-27T15:34:46;13.40;53.80
48212;DHT22;34000;48.772;9.162;2022-11-27T15:37:33;13.20;46.20
48212;DHT22;34000;48.772;9.162;2022-11-27T15:39:58;13.10;46.30
48212;DHT22;34000;48.772;9.162;2022-11-27T15:42:25;13.20;46.50
48212;DHT22;34000;48.772;9.162;2022-11-27T15:44:52;13.00;46.40
48212;DHT22;34000;48.772;9.162;2022-11-27T15:47:36;13.00;47.50
48212;DHT22;34000;48.772;9.162;2022-11-27T15:50:02;13.20;48.00
48212;DHT22;34000;48.772;9.162;2022-11-27T15:52:28;13.10;46.50
48212;DHT22;34000;48.772;9.162;2022-11-27T15:54:54;13.10;46.50
48212;DHT22;34000;48.772;9.162;2022-11-27T15:57:21;13.10;46.50
48212;DHT22;34000;48.772;9.162;2022-11-27T15:59:46;13.20;46.50
48212;DHT22;34000;48.772;9.162;2022-11-27T16:02:12;13.20;46.50
48212;DHT22;34000;48.772;9.162;2022-11-27T16:04:38;13.20;46.50
48212;DHT22;34000;48.772;9.162;2022-11-27T16:07:03;13.20;46.50
48212;DHT22;34000;48.772;9.162;2022-11-27T16:09:29;13.20;46.50
48212;DHT22;34000;48.772;9.162;2022-11-27T16:11:54;13.20;46.60
48212;DHT22;34000;48.772;9.162;2022-11-27T16:14:20;13.20;46.60
48212;DHT22;34000;48.772;9.162;2022-11-27T16:16:46;13.20;46.60
48212;DHT22;34000;48.772;9.162;2022-11-27T16:19:11;13.20;46.70
48212;DHT22;34000;48.772;9.162;2022-11-27T16:21:39;13.20;46.70
48212;DHT22;34000;48.772;9.162;2022-11-27T16:24:05;13.20;46.70
48212;DHT22;34000;48.772;9.162;2022-11-27T16:26:31;13.20;46.80
48212;DHT22;34000;48.772;9.162;2022-11-27T16:28:57;13.20;46.80
48212;DHT22;34000;48.772;9.162;2022-11-27T16:31:23;13.10;46.90
48212;DHT22;34000;48.772;9.162;2022-11-27T16:33:49;13.10;47.00
48212;DHT22;34000;48.772;9.162;2022-11-27T16:36:15;13.10;47.10
48212;DHT22;34000;48.772;9.162;2022-11-27T16:38:42;13.00;47.10
48212;DHT22;34000;48.772;9.162;2022-11-27T16:41:09;13.00;47.10
48212;DHT22;34000;48.772;9.162;2022-11-27T16:43:39;13.00;47.30
48212;DHT22;34000;48.772;9.162;2022-11-27T16:46:06;12.90;47.50
48212;DHT22;34000;48.772;9.162;2022-11-27T16:48:32;12.80;47.50
48212;DHT22;34000;48.772;9.162;2022-11-27T16:51:06;12.90;47.60
48212;DHT22;34000;48.772;9.162;2022-11-27T16:53:32;12.80;47.60
48212;DHT22;34000;48.772;9.162;2022-11-27T16:55:58;12.70;47.80
48212;DHT22;34000;48.772;9.162;2022-11-27T16:58:23;12.70;47.80
48212;DHT22;34000;48.772;9.162;2022-11-27T17:00:49;12.70;47.90
48212;DHT22;34000;48.772;9.162;2022-11-27T17:03:14;12.60;48.00
48212;DHT22;34000;48.772;9.162;2022-11-27T17:05:40;12.60;48.10
48212;DHT22;34000;48.772;9.162;2022-11-27T17:08:06;12.60;48.00
48212;DHT22;34000;48.772;9.162;2022-11-27T17:10:31;12.60;48.00
48212;DHT22;34000;48.772;9.162;2022-11-27T17:12:57;12.80;49.20
48212;DHT22;34000;48.772;9.162;2022-11-27T17:15:22;12.70;48.80
48212;DHT22;34000;48.772;9.162;2022-11-27T17:17:48;12.70;48.30
48212;DHT22;34000;48.772;9.162;2022-11-27T17:20:14;12.50;48.30
48212;DHT22;34000;48.772;9.162;2022-11-27T17:25:05;12.50;50.70
48212;DHT22;34000;48.772;9.162;2022-11-27T17:27:34;12.40;48.40
48212;DHT22;34000;48.772;9.162;2022-11-27T17:30:00;12.40;48.70
48212;DHT22;34000;48.772;9.162;2022-11-27T17:32:25;12.20;48.60
48212;DHT22;34000;48.772;9.162;2022-11-27T17:34:51;12.10;48.70
48212;DHT22;34000;48.772;9.162;2022-11-27T17:37:16;12.00;48.80
48212;DHT22;34000;48.772;9.162;2022-11-27T17:39:41;11.90;48.90
48212;DHT22;34000;48.772;9.162;2022-11-27T17:42:08;11.90;49.00
48212;DHT22;34000;48.772;9.162;2022-11-27T17:44:33;11.90;48.90
48212;DHT22;34000;48.772;9.162;2022-11-27T17:46:59;11.90;48.90
48212;DHT22;34000;48.772;9.162;2022-11-27T17:49:25;11.90;48.90
48212;DHT22;34000;48.772;9.162;2022-11-27T17:51:51;11.90;48.90
48212;DHT22;34000;48.772;9.162;2022-11-27T17:54:16;11.70;48.90
48212;DHT22;34000;48.772;9.162;2022-11-27T17:56:42;11.70;49.00
48212;DHT22;34000;48.772;9.162;2022-11-27T17:59:07;11.60;49.10
48212;DHT22;34000;48.772;9.162;2022-11-27T18:01:32;11.60;49.10
48212;DHT22;34000;48.772;9.162;2022-11-27T18:03:58;11.70;49.10
48212;DHT22;34000;48.772;9.162;2022-11-27T18:06:25;11.80;49.00
48212;DHT22;34000;48.772;9.162;2022-11-27T18:08:50;11.80;48.80
48212;DHT22;34000;48.772;9.162;2022-11-27T18:11:20;11.80;48.70
48212;DHT22;34000;48.772;9.162;2022-11-27T18:13:46;11.90;48.70